sensor_id;sensor_type;location;lat;lon;timestamp;P1;durP1;ratioP1;P2;durP2;ratioP2
36923;SDS011;22841;50.252;18.688;2022-10-31T00:00:58;61.17;;;29.95;;
36923;SDS011;22841;50.252;18.688;2022-10-31T00:03:24;60.33;;;27.23;;
36923;SDS011;22841;50.252;18.688;2022-10-31T00:05:52;59.08;;;29.80;;
36923;SDS011;22841;50.252;18.688;2022-10-31T00:08:18;63.22;;;31.20;;
36923;SDS011;22841;50.252;18.688;2022-10-31T00:10:45;53.33;;;28.90;;
36923;SDS011;22841;50.252;18.688;2022-10-31T00:13:11;60.47;;;29.52;;
36923;SDS011;22841;50.252;18.688;2022-10-31T00:15:39;53.20;;;26.77;;
36923;SDS011;22841;50.252;18.688;2022-10-31T00:18:06;51.17;;;25.27;;
36923;SDS011;22841;50.252;18.688;2022-10-31T00:20:33;56.83;;;25.85;;
36923;SDS011;22841;50.252;18.688;2022-10-31T00:23:01;52.42;;;25.25;;
36923;SDS011;22841;50.252;18.688;2022-10-31T00:25:28;52.28;;;24.85;;
36923;SDS011;22841;50.252;18.688;2022-10-31T00:27:59;50.42;;;26.02;;
36923;SDS011;22841;50.252;18.688;2022-10-31T00:30:25;44.45;;;23.08;;
36923;SDS011;22841;50.252;18.688;2022-10-31T00:32:51;51.13;;;25.42;;
36923;SDS011;22841;50.252;18.688;2022-10-31T00:35:17;49.78;;;25.77;;
36923;SDS011;22841;50.252;18.688;2022-10-31T00:37:43;49.75;;;24.70;;
36923;SDS011;22841;50.252;18.688;2022-10-31T00:40:10;60.22;;;24.88;;
36923;SDS011;22841;50.252;18.688;2022-10-31T00:42:36;48.78;;;23.52;;
36923;SDS011;22841;50.252;18.688;2022-10-31T00:45:02;46.65;;;22.20;;
36923;SDS011;22841;50.252;18.688;2022-10-31T00:47:28;51.17;;;24.65;;
36923;SDS011;22841;50.252;18.688;2022-10-31T00:49:54;43.90;;;23.25;;
36923;SDS011;22841;50.252;18.688;2022-10-31T00:52:20;51.35;;;24.10;;
36923;SDS011;22841;50.252;18.688;2022-10-31T00:54:46;46.47;;;23.25;;
36923;SDS011;22841;50.252;18.688;2022-10-31T00:57:12;47.92;;;25.33;;
36923;SDS011;22841;50.252;18.688;2022-10-31T00:59:38;48.28;;;25.05;;
36923;SDS011;22841;50.252;18.688;2022-10-31T01:02:05;52.13;;;23.92;;
36923;SDS011;22841;50.252;18.688;2022-10-31T01:04:31;47.88;;;24.50;;
36923;SDS011;22841;50.252;18.688;2022-10-31T01:06:57;52.70;;;25.13;;
36923;SDS011;22841;50.252;18.688;2022-10-31T01:09:23;49.70;;;23.33;;
36923;SDS011;22841;50.252;18.688;2022-10-31T01:11:49;52.15;;;24.77;;
36923;SDS011;22841;50.252;18.688;2022-10-31T01:14:15;57.30;;;25.33;;
36923;SDS011;22841;50.252;18.688;2022-10-31T01:16:42;57.92;;;24.23;;
36923;SDS011;22841;50.252;18.688;2022-10-31T01:19:08;41.25;;;22.08;;
36923;SDS011;22841;50.252;18.688;2022-10-31T01:21:34;40.63;;;21.58;;
36923;SDS011;22841;50.252;18.688;2022-10-31T01:24:00;46.60;;;23.10;;
36923;SDS011;22841;50.252;18.688;2022-10-31T01:26:30;46.63;;;22.48;;
36923;SDS011;22841;50.252;18.688;2022-10-31T01:28:59;53.17;;;23.63;;
36923;SDS011;22841;50.252;18.688;2022-10-31T01:31:27;44.75;;;22.88;;
36923;SDS011;22841;50.252;18.688;2022-10-31T01:33:56;42.28;;;22.75;;
36923;SDS011;22841;50.252;18.688;2022-10-31T01:36:24;39.20;;;23.15;;
36923;SDS011;22841;50.252;18.688;2022-10-31T01:38:53;44.53;;;22.38;;
36923;SDS011;22841;50.252;18.688;2022-10-31T01:41:24;48.95;;;22.40;;
36923;SDS011;22841;50.252;18.688;2022-10-31T01:43:59;49.72;;;24.25;;
36923;SDS011;22841;50.252;18.688;2022-10-31T01:46:28;56.35;;;23.90;;
36923;SDS011;22841;50.252;18.688;2022-10-31T01:49:00;53.40;;;25.98;;
36923;SDS011;22841;50.252;18.688;2022-10-31T01:51:31;50.28;;;23.55;;
36923;SDS011;22841;50.252;18.688;2022-10-31T01:54:01;48.38;;;23.45;;
36923;SDS011;22841;50.252;18.688;2022-10-31T01:56:31;50.13;;;25.38;;
36923;SDS011;22841;50.252;18.688;2022-10-31T01:59:00;49.47;;;24.67;;
36923;SDS011;22841;50.252;18.688;2022-10-31T02:01:28;44.58;;;23.70;;
36923;SDS011;22841;50.252;18.688;2022-10-31T02:03:54;52.15;;;25.77;;
36923;SDS011;22841;50.252;18.688;2022-10-31T02:06:25;52.67;;;23.10;;
36923;SDS011;22841;50.252;18.688;2022-10-31T02:08:57;51.40;;;24.17;;
36923;SDS011;22841;50.252;18.688;2022-10-31T02:11:27;55.75;;;25.67;;
36923;SDS011;22841;50.252;18.688;2022-10-31T02:13:54;49.38;;;25.10;;
36923;SDS011;22841;50.252;18.688;2022-10-31T02:16:24;47.80;;;23.75;;
36923;SDS011;22841;50.252;18.688;2022-10-31T02:18:50;50.95;;;23.92;;
36923;SDS011;22841;50.252;18.688;2022-10-31T02:21:21;45.53;;;24.08;;
36923;SDS011;22841;50.252;18.688;2022-10-31T02:32:17;49.78;;;22.38;;
36923;SDS011;22841;50.252;18.688;2022-10-31T02:37:25;45.67;;;22.13;;
36923;SDS011;22841;50.252;18.688;2022-10-31T02:42:33;37.83;;;19.77;;
36923;SDS011;22841;50.252;18.688;2022-10-31T02:45:14;40.03;;;21.63;;
36923;SDS011;22841;50.252;18.688;2022-10-31T02:47:54;49.08;;;23.25;;
36923;SDS011;22841;50.252;18.688;2022-10-31T02:50:30;46.65;;;21.50;;
36923;SDS011;22841;50.252;18.688;2022-10-31T02:53:02;43.97;;;23.63;;
36923;SDS011;22841;50.252;18.688;2022-10-31T02:58:17;45.90;;;23.13;;
36923;SDS011;22841;50.252;18.688;2022-10-31T03:03:30;47.53;;;21.27;;
36923;SDS011;22841;50.252;18.688;2022-10-31T03:06:10;40.28;;;21.58;;
36923;SDS011;22841;50.252;18.688;2022-10-31T03:08:54;42.08;;;21.67;;
36923;SDS011;22841;50.252;18.688;2022-10-31T03:11:22;54.17;;;22.58;;
36923;SDS011;22841;50.252;18.688;2022-10-31T03:13:56;45.00;;;21.95;;
36923;SDS011;22841;50.252;18.688;2022-10-31T03:16:25;40.50;;;21.10;;
36923;SDS011;22841;50.252;18.688;2022-10-31T03:19:05;40.95;;;21.88;;
36923;SDS011;22841;50.252;18.688;2022-10-31T03:21:34;39.78;;;21.10;;
36923;SDS011;22841;50.252;18.688;2022-10-31T03:24:08;38.72;;;20.75;;
36923;SDS011;22841;50.252;18.688;2022-10-31T03:26:36;49.47;;;22.48;;
36923;SDS011;22841;50.252;18.688;2022-10-31T03:29:07;45.00;;;21.00;;
36923;SDS011;22841;50.252;18.688;2022-10-31T03:31:37;38.90;;;20.67;;
36923;SDS011;22841;50.252;18.688;2022-10-31T03:34:09;40.75;;;20.80;;
36923;SDS011;22841;50.252;18.688;2022-10-31T03:36:37;41.13;;;21.38;;
36923;SDS011;22841;50.252;18.688;2022-10-31T03:39:05;38.80;;;20.75;;
36923;SDS011;22841;50.252;18.688;2022-10-31T03:41:38;39.42;;;20.13;;
36923;SDS011;22841;50.252;18.688;2022-10-31T03:44:10;39.47;;;18.92;;
36923;SDS011;22841;50.252;18.688;2022-10-31T03:46:40;34.58;;;19.33;;
36923;SDS011;22841;50.252;18.688;2022-10-31T03:49:08;40.95;;;17.98;;
36923;SDS011;22841;50.252;18.688;2022-10-31T03:51:39;37.55;;;19.92;;
36923;SDS011;22841;50.252;18.688;2022-10-31T03:56:50;37.95;;;19.75;;
36923;SDS011;22841;50.252;18.688;2022-10-31T03:59:32;34.83;;;20.23;;
36923;SDS011;22841;50.252;18.688;2022-10-31T04:02:03;31.73;;;19.00;;
36923;SDS011;22841;50.252;18.688;2022-10-31T04:04:34;40.80;;;19.65;;
36923;SDS011;22841;50.252;18.688;2022-10-31T04:07:02;33.90;;;18.33;;
36923;SDS011;22841;50.252;18.688;2022-10-31T04:09:31;33.05;;;18.63;;
36923;SDS011;22841;50.252;18.688;2022-10-31T04:12:00;32.28;;;18.85;;
36923;SDS011;22841;50.252;18.688;2022-10-31T04:14:28;35.45;;;18.48;;
36923;SDS011;22841;50.252;18.688;2022-10-31T04:16:57;36.47;;;19.85;;
36923;SDS011;22841;50.252;18.688;2022-10-31T04:19:24;33.38;;;18.23;;
36923;SDS011;22841;50.252;18.688;2022-10-31T04:21:50;33.95;;;18.42;;
36923;SDS011;22841;50.252;18.688;2022-10-31T04:24:16;30.33;;;18.42;;
36923;SDS011;22841;50.252;18.688;2022-10-31T04:26:42;29.88;;;18.52;;
36923;SDS011;22841;50.252;18.688;2022-10-31T04:29:08;33.13;;;17.08;;
36923;SDS011;22841;50.252;18.688;2022-10-31T04:31:34;31.48;;;17.10;;
36923;SDS011;22841;50.252;18.688;2022-10-31T04:34:00;32.45;;;19.50;;
36923;SDS011;22841;50.252;18.688;2022-10-31T04:36:26;33.58;;;18.67;;
36923;SDS011;22841;50.252;18.688;2022-10-31T04:38:52;37.13;;;19.33;;
36923;SDS011;22841;50.252;18.688;2022-10-31T04:41:18;42.53;;;19.27;;
36923;SDS011;22841;50.252;18.688;2022-10-31T04:43:44;37.67;;;19.70;;
36923;SDS011;22841;50.252;18.688;2022-10-31T04:46:10;37.78;;;19.15;;
36923;SDS011;22841;50.252;18.688;2022-10-31T04:48:36;34.00;;;17.67;;
36923;SDS011;22841;50.252;18.688;2022-10-31T04:51:02;38.58;;;18.73;;
36923;SDS011;22841;50.252;18.688;2022-10-31T04:53:29;29.90;;;17.92;;
36923;SDS011;22841;50.252;18.688;2022-10-31T04:55:57;26.05;;;16.42;;
36923;SDS011;22841;50.252;18.688;2022-10-31T04:58:24;33.00;;;19.13;;
36923;SDS011;22841;50.252;18.688;2022-10-31T05:00:54;30.30;;;18.35;;
36923;SDS011;22841;50.252;18.688;2022-10-31T05:03:21;32.45;;;17.70;;
36923;SDS011;22841;50.252;18.688;2022-10-31T05:05:47;37.92;;;18.88;;
36923;SDS011;22841;50.252;18.688;2022-10-31T05:08:13;35.00;;;19.80;;
36923;SDS011;22841;50.252;18.688;2022-10-31T05:10:45;37.90;;;20.02;;
36923;SDS011;22841;50.252;18.688;2022-10-31T05:15:37;41.05;;;21.02;;
36923;SDS011;22841;50.252;18.688;2022-10-31T05:18:03;40.03;;;21.27;;
36923;SDS011;22841;50.252;18.688;2022-10-31T05:20:30;40.03;;;20.95;;
36923;SDS011;22841;50.252;18.688;2022-10-31T05:22:58;40.95;;;20.65;;
36923;SDS011;22841;50.252;18.688;2022-10-31T05:25:26;39.40;;;20.05;;
36923;SDS011;22841;50.252;18.688;2022-10-31T05:27:53;37.50;;;19.48;;
36923;SDS011;22841;50.252;18.688;2022-10-31T05:30:28;43.15;;;21.13;;
36923;SDS011;22841;50.252;18.688;2022-10-31T05:32:55;33.67;;;19.35;;
36923;SDS011;22841;50.252;18.688;2022-10-31T05:35:23;37.33;;;21.02;;
36923;SDS011;22841;50.252;18.688;2022-10-31T05:37:51;30.00;;;19.08;;
36923;SDS011;22841;50.252;18.688;2022-10-31T05:40:17;32.20;;;19.52;;
36923;SDS011;22841;50.252;18.688;2022-10-31T05:42:45;38.28;;;20.42;;
36923;SDS011;22841;50.252;18.688;2022-10-31T05:45:12;42.88;;;22.58;;
36923;SDS011;22841;50.252;18.688;2022-10-31T05:47:40;36.63;;;20.95;;
36923;SDS011;22841;50.252;18.688;2022-10-31T05:50:06;42.47;;;21.38;;
36923;SDS011;22841;50.252;18.688;2022-10-31T05:52:33;32.97;;;19.98;;
36923;SDS011;22841;50.252;18.688;2022-10-31T05:55:00;36.83;;;21.20;;
36923;SDS011;22841;50.252;18.688;2022-10-31T05:57:27;33.20;;;20.63;;
36923;SDS011;22841;50.252;18.688;2022-10-31T05:59:54;35.70;;;20.60;;
36923;SDS011;22841;50.252;18.688;2022-10-31T06:02:20;41.28;;;21.35;;
36923;SDS011;22841;50.252;18.688;2022-10-31T06:04:48;38.10;;;21.42;;
36923;SDS011;22841;50.252;18.688;2022-10-31T06:07:14;36.60;;;21.27;;
36923;SDS011;22841;50.252;18.688;2022-10-31T06:09:40;34.88;;;20.88;;
36923;SDS011;22841;50.252;18.688;2022-10-31T06:12:06;37.30;;;20.80;;
36923;SDS011;22841;50.252;18.688;2022-10-31T06:14:32;47.42;;;24.48;;
36923;SDS011;22841;50.252;18.688;2022-10-31T06:16:58;52.58;;;25.10;;
36923;SDS011;22841;50.252;18.688;2022-10-31T06:19:24;50.60;;;26.65;;
36923;SDS011;22841;50.252;18.688;2022-10-31T06:21:50;53.65;;;27.73;;
36923;SDS011;22841;50.252;18.688;2022-10-31T06:24:18;60.85;;;26.95;;
36923;SDS011;22841;50.252;18.688;2022-10-31T06:26:44;56.58;;;26.75;;
36923;SDS011;22841;50.252;18.688;2022-10-31T06:29:10;53.92;;;28.75;;
36923;SDS011;22841;50.252;18.688;2022-10-31T06:31:36;50.80;;;26.50;;
36923;SDS011;22841;50.252;18.688;2022-10-31T06:34:02;50.58;;;27.40;;
36923;SDS011;22841;50.252;18.688;2022-10-31T06:36:28;63.58;;;26.92;;
36923;SDS011;22841;50.252;18.688;2022-10-31T06:38:54;56.65;;;27.83;;
36923;SDS011;22841;50.252;18.688;2022-10-31T06:41:21;65.38;;;29.13;;
36923;SDS011;22841;50.252;18.688;2022-10-31T06:43:47;62.15;;;27.35;;
36923;SDS011;22841;50.252;18.688;2022-10-31T06:46:13;77.53;;;28.42;;
36923;SDS011;22841;50.252;18.688;2022-10-31T06:48:42;57.00;;;26.65;;
36923;SDS011;22841;50.252;18.688;2022-10-31T06:51:08;67.97;;;28.38;;
36923;SDS011;22841;50.252;18.688;2022-10-31T06:53:35;64.65;;;25.40;;
36923;SDS011;22841;50.252;18.688;2022-10-31T06:56:01;52.75;;;26.00;;
36923;SDS011;22841;50.252;18.688;2022-10-31T06:58:27;53.90;;;27.23;;
36923;SDS011;22841;50.252;18.688;2022-10-31T07:00:53;50.58;;;24.95;;
36923;SDS011;22841;50.252;18.688;2022-10-31T07:03:19;57.05;;;25.67;;
36923;SDS011;22841;50.252;18.688;2022-10-31T07:05:45;56.92;;;28.35;;
36923;SDS011;22841;50.252;18.688;2022-10-31T07:08:12;53.40;;;26.63;;
36923;SDS011;22841;50.252;18.688;2022-10-31T07:10:39;55.20;;;26.95;;
36923;SDS011;22841;50.252;18.688;2022-10-31T07:13:13;60.75;;;28.73;;
36923;SDS011;22841;50.252;18.688;2022-10-31T07:15:40;57.35;;;27.13;;
36923;SDS011;22841;50.252;18.688;2022-10-31T07:18:08;66.68;;;27.45;;
36923;SDS011;22841;50.252;18.688;2022-10-31T07:20:35;57.17;;;27.67;;
36923;SDS011;22841;50.252;18.688;2022-10-31T07:23:02;65.22;;;26.77;;
36923;SDS011;22841;50.252;18.688;2022-10-31T07:25:28;66.53;;;27.50;;
36923;SDS011;22841;50.252;18.688;2022-10-31T07:27:54;59.35;;;26.63;;
36923;SDS011;22841;50.252;18.688;2022-10-31T07:30:21;57.03;;;26.63;;
36923;SDS011;22841;50.252;18.688;2022-10-31T07:32:47;55.70;;;27.08;;
36923;SDS011;22841;50.252;18.688;2022-10-31T07:35:15;59.67;;;27.38;;
36923;SDS011;22841;50.252;18.688;2022-10-31T07:37:43;50.28;;;24.35;;
36923;SDS011;22841;50.252;18.688;2022-10-31T07:40:10;56.40;;;27.15;;
36923;SDS011;22841;50.252;18.688;2022-10-31T07:42:37;48.22;;;25.58;;
36923;SDS011;22841;50.252;18.688;2022-10-31T07:45:05;54.00;;;27.58;;
36923;SDS011;22841;50.252;18.688;2022-10-31T07:50:05;70.70;;;31.27;;
36923;SDS011;22841;50.252;18.688;2022-10-31T07:52:32;79.25;;;32.85;;
36923;SDS011;22841;50.252;18.688;2022-10-31T07:54:58;67.00;;;32.33;;
36923;SDS011;22841;50.252;18.688;2022-10-31T07:57:24;76.85;;;32.78;;
36923;SDS011;22841;50.252;18.688;2022-10-31T07:59:51;64.13;;;30.73;;
36923;SDS011;22841;50.252;18.688;2022-10-31T08:02:17;71.60;;;31.55;;
36923;SDS011;22841;50.252;18.688;2022-10-31T08:04:43;77.25;;;33.60;;
36923;SDS011;22841;50.252;18.688;2022-10-31T08:07:09;78.22;;;33.47;;
36923;SDS011;22841;50.252;18.688;2022-10-31T08:09:35;79.45;;;36.55;;
36923;SDS011;22841;50.252;18.688;2022-10-31T08:12:01;73.70;;;34.47;;
36923;SDS011;22841;50.252;18.688;2022-10-31T08:14:27;73.53;;;34.63;;
36923;SDS011;22841;50.252;18.688;2022-10-31T08:16:53;78.97;;;34.38;;
36923;SDS011;22841;50.252;18.688;2022-10-31T08:19:20;73.10;;;33.03;;
36923;SDS011;22841;50.252;18.688;2022-10-31T08:21:46;65.32;;;33.58;;
36923;SDS011;22841;50.252;18.688;2022-10-31T08:24:15;78.68;;;34.17;;
36923;SDS011;22841;50.252;18.688;2022-10-31T08:26:41;77.00;;;34.33;;
36923;SDS011;22841;50.252;18.688;2022-10-31T08:29:07;73.30;;;33.08;;
36923;SDS011;22841;50.252;18.688;2022-10-31T08:31:34;68.22;;;32.20;;
36923;SDS011;22841;50.252;18.688;2022-10-31T08:34:00;70.07;;;31.88;;
36923;SDS011;22841;50.252;18.688;2022-10-31T08:36:28;64.90;;;31.52;;
36923;SDS011;22841;50.252;18.688;2022-10-31T08:38:54;67.75;;;31.05;;
36923;SDS011;22841;50.252;18.688;2022-10-31T08:41:21;65.32;;;29.35;;
36923;SDS011;22841;50.252;18.688;2022-10-31T08:43:47;58.92;;;29.30;;
36923;SDS011;22841;50.252;18.688;2022-10-31T08:46:13;64.55;;;31.15;;
36923;SDS011;22841;50.252;18.688;2022-10-31T08:48:40;60.30;;;27.90;;
36923;SDS011;22841;50.252;18.688;2022-10-31T08:51:06;51.85;;;27.20;;
36923;SDS011;22841;50.252;18.688;2022-10-31T08:53:32;52.80;;;27.98;;
36923;SDS011;22841;50.252;18.688;2022-10-31T08:58:57;58.75;;;27.05;;
36923;SDS011;22841;50.252;18.688;2022-10-31T09:01:23;58.92;;;26.50;;
36923;SDS011;22841;50.252;18.688;2022-10-31T09:03:49;55.85;;;25.88;;
36923;SDS011;22841;50.252;18.688;2022-10-31T09:06:15;49.85;;;24.35;;
36923;SDS011;22841;50.252;18.688;2022-10-31T09:08:41;42.28;;;21.00;;
36923;SDS011;22841;50.252;18.688;2022-10-31T09:11:07;47.63;;;23.38;;
36923;SDS011;22841;50.252;18.688;2022-10-31T09:13:33;42.78;;;22.77;;
36923;SDS011;22841;50.252;18.688;2022-10-31T09:15:59;45.17;;;21.95;;
36923;SDS011;22841;50.252;18.688;2022-10-31T09:18:26;47.53;;;22.10;;
36923;SDS011;22841;50.252;18.688;2022-10-31T09:20:53;45.33;;;21.23;;
36923;SDS011;22841;50.252;18.688;2022-10-31T09:23:20;46.17;;;20.42;;
36923;SDS011;22841;50.252;18.688;2022-10-31T09:25:48;51.80;;;21.73;;
36923;SDS011;22841;50.252;18.688;2022-10-31T09:28:16;39.65;;;19.98;;
36923;SDS011;22841;50.252;18.688;2022-10-31T09:30:45;41.95;;;19.88;;
36923;SDS011;22841;50.252;18.688;2022-10-31T09:33:13;45.00;;;21.10;;
36923;SDS011;22841;50.252;18.688;2022-10-31T09:35:41;40.65;;;19.58;;
36923;SDS011;22841;50.252;18.688;2022-10-31T09:38:14;40.33;;;18.58;;
36923;SDS011;22841;50.252;18.688;2022-10-31T09:46:16;51.80;;;19.88;;
36923;SDS011;22841;50.252;18.688;2022-10-31T09:51:39;37.60;;;19.48;;
36923;SDS011;22841;50.252;18.688;2022-10-31T09:54:18;36.22;;;17.83;;
36923;SDS011;22841;50.252;18.688;2022-10-31T09:57:13;35.50;;;18.35;;
36923;SDS011;22841;50.252;18.688;2022-10-31T09:59:41;29.33;;;16.70;;
36923;SDS011;22841;50.252;18.688;2022-10-31T10:02:30;42.78;;;17.75;;
36923;SDS011;22841;50.252;18.688;2022-10-31T10:05:11;35.15;;;14.88;;
36923;SDS011;22841;50.252;18.688;2022-10-31T10:07:49;32.83;;;16.17;;
36923;SDS011;22841;50.252;18.688;2022-10-31T10:16:21;30.38;;;15.43;;
36923;SDS011;22841;50.252;18.688;2022-10-31T10:18:53;32.03;;;14.35;;
36923;SDS011;22841;50.252;18.688;2022-10-31T10:21:38;38.22;;;14.73;;
36923;SDS011;22841;50.252;18.688;2022-10-31T10:29:28;41.97;;;14.32;;
36923;SDS011;22841;50.252;18.688;2022-10-31T10:31:59;29.77;;;13.77;;
36923;SDS011;22841;50.252;18.688;2022-10-31T10:34:31;25.42;;;13.20;;
36923;SDS011;22841;50.252;18.688;2022-10-31T10:37:12;27.98;;;12.52;;
36923;SDS011;22841;50.252;18.688;2022-10-31T10:39:50;27.00;;;13.38;;
36923;SDS011;22841;50.252;18.688;2022-10-31T10:42:21;33.97;;;12.50;;
36923;SDS011;22841;50.252;18.688;2022-10-31T10:45:16;34.45;;;12.23;;
36923;SDS011;22841;50.252;18.688;2022-10-31T10:48:05;28.15;;;14.65;;
36923;SDS011;22841;50.252;18.688;2022-10-31T10:50:37;26.70;;;13.40;;
36923;SDS011;22841;50.252;18.688;2022-10-31T10:53:30;38.05;;;13.38;;
36923;SDS011;22841;50.252;18.688;2022-10-31T10:56:36;40.22;;;13.77;;
36923;SDS011;22841;50.252;18.688;2022-10-31T10:59:16;35.42;;;13.40;;
36923;SDS011;22841;50.252;18.688;2022-10-31T11:01:45;25.85;;;13.15;;
36923;SDS011;22841;50.252;18.688;2022-10-31T11:04:34;28.95;;;11.30;;
36923;SDS011;22841;50.252;18.688;2022-10-31T11:07:03;21.15;;;11.50;;
36923;SDS011;22841;50.252;18.688;2022-10-31T11:09:31;90.80;;;12.70;;
36923;SDS011;22841;50.252;18.688;2022-10-31T11:11:58;28.50;;;11.68;;
36923;SDS011;22841;50.252;18.688;2022-10-31T11:14:26;56.35;;;12.30;;
36923;SDS011;22841;50.252;18.688;2022-10-31T11:16:55;28.25;;;11.15;;
36923;SDS011;22841;50.252;18.688;2022-10-31T11:19:34;30.90;;;10.43;;
36923;SDS011;22841;50.252;18.688;2022-10-31T11:22:07;37.15;;;10.80;;
36923;SDS011;22841;50.252;18.688;2022-10-31T11:24:40;26.38;;;11.60;;
36923;SDS011;22841;50.252;18.688;2022-10-31T11:27:23;19.27;;;10.23;;
36923;SDS011;22841;50.252;18.688;2022-10-31T11:29:50;17.67;;;9.10;;
36923;SDS011;22841;50.252;18.688;2022-10-31T11:32:21;23.73;;;11.55;;
36923;SDS011;22841;50.252;18.688;2022-10-31T11:34:51;17.73;;;9.32;;
36923;SDS011;22841;50.252;18.688;2022-10-31T11:37:25;21.13;;;8.23;;
36923;SDS011;22841;50.252;18.688;2022-10-31T11:39:58;22.77;;;8.30;;
36923;SDS011;22841;50.252;18.688;2022-10-31T11:42:27;17.35;;;7.97;;
36923;SDS011;22841;50.252;18.688;2022-10-31T11:45:00;17.88;;;7.68;;
36923;SDS011;22841;50.252;18.688;2022-10-31T11:47:33;23.08;;;9.95;;
36923;SDS011;22841;50.252;18.688;2022-10-31T11:50:00;42.50;;;10.00;;
36923;SDS011;22841;50.252;18.688;2022-10-31T11:52:36;20.77;;;9.25;;
36923;SDS011;22841;50.252;18.688;2022-10-31T11:57:56;14.87;;;8.23;;
36923;SDS011;22841;50.252;18.688;2022-10-31T12:00:30;22.75;;;9.77;;
36923;SDS011;22841;50.252;18.688;2022-10-31T12:05:56;22.95;;;8.18;;
36923;SDS011;22841;50.252;18.688;2022-10-31T12:08:29;17.88;;;8.10;;
36923;SDS011;22841;50.252;18.688;2022-10-31T12:13:37;19.27;;;8.27;;
36923;SDS011;22841;50.252;18.688;2022-10-31T12:21:19;17.30;;;7.63;;
36923;SDS011;22841;50.252;18.688;2022-10-31T12:32:58;18.02;;;6.35;;
36923;SDS011;22841;50.252;18.688;2022-10-31T12:35:44;11.60;;;5.88;;
36923;SDS011;22841;50.252;18.688;2022-10-31T12:41:19;21.80;;;6.45;;
36923;SDS011;22841;50.252;18.688;2022-10-31T12:43:46;12.77;;;6.22;;
36923;SDS011;22841;50.252;18.688;2022-10-31T12:51:58;13.65;;;6.53;;
36923;SDS011;22841;50.252;18.688;2022-10-31T13:00:26;28.88;;;6.63;;
36923;SDS011;22841;50.252;18.688;2022-10-31T13:05:27;34.58;;;6.82;;
36923;SDS011;22841;50.252;18.688;2022-10-31T13:07:58;20.13;;;6.80;;
36923;SDS011;22841;50.252;18.688;2022-10-31T13:10:36;12.57;;;6.50;;
36923;SDS011;22841;50.252;18.688;2022-10-31T13:13:24;28.95;;;6.38;;
36923;SDS011;22841;50.252;18.688;2022-10-31T13:15:57;20.25;;;7.43;;
36923;SDS011;22841;50.252;18.688;2022-10-31T13:19:20;9.70;;;6.03;;
36923;SDS011;22841;50.252;18.688;2022-10-31T13:24:33;13.65;;;6.38;;
36923;SDS011;22841;50.252;18.688;2022-10-31T13:27:14;18.83;;;6.03;;
36923;SDS011;22841;50.252;18.688;2022-10-31T13:29:59;15.20;;;5.95;;
36923;SDS011;22841;50.252;18.688;2022-10-31T13:32:49;26.25;;;6.63;;
36923;SDS011;22841;50.252;18.688;2022-10-31T13:35:31;32.97;;;6.90;;
36923;SDS011;22841;50.252;18.688;2022-10-31T13:38:15;17.30;;;6.72;;
36923;SDS011;22841;50.252;18.688;2022-10-31T13:41:02;26.17;;;7.35;;
36923;SDS011;22841;50.252;18.688;2022-10-31T13:46:24;20.88;;;6.05;;
36923;SDS011;22841;50.252;18.688;2022-10-31T13:48:59;16.37;;;7.23;;
36923;SDS011;22841;50.252;18.688;2022-10-31T13:51:30;12.15;;;6.00;;
36923;SDS011;22841;50.252;18.688;2022-10-31T13:53:59;19.23;;;5.90;;
36923;SDS011;22841;50.252;18.688;2022-10-31T13:56:27;20.30;;;6.38;;
36923;SDS011;22841;50.252;18.688;2022-10-31T13:59:39;18.75;;;5.78;;
36923;SDS011;22841;50.252;18.688;2022-10-31T14:01:47;29.17;;;8.32;;
36923;SDS011;22841;50.252;18.688;2022-10-31T14:04:16;26.17;;;6.55;;
36923;SDS011;22841;50.252;18.688;2022-10-31T14:09:27;189.60;;;19.90;;
36923;SDS011;22841;50.252;18.688;2022-10-31T14:12:21;88.82;;;10.82;;
36923;SDS011;22841;50.252;18.688;2022-10-31T14:14:49;25.10;;;6.50;;
36923;SDS011;22841;50.252;18.688;2022-10-31T14:17:22;39.20;;;8.07;;
36923;SDS011;22841;50.252;18.688;2022-10-31T14:20:26;58.38;;;8.50;;
36923;SDS011;22841;50.252;18.688;2022-10-31T14:22:43;25.92;;;7.25;;
36923;SDS011;22841;50.252;18.688;2022-10-31T14:28:00;37.17;;;7.43;;
36923;SDS011;22841;50.252;18.688;2022-10-31T14:30:33;26.33;;;6.65;;
36923;SDS011;22841;50.252;18.688;2022-10-31T14:33:04;52.58;;;8.35;;
36923;SDS011;22841;50.252;18.688;2022-10-31T14:39:13;131.32;;;14.02;;
36923;SDS011;22841;50.252;18.688;2022-10-31T14:41:36;130.55;;;14.45;;
36923;SDS011;22841;50.252;18.688;2022-10-31T14:45:08;179.52;;;18.00;;
36923;SDS011;22841;50.252;18.688;2022-10-31T14:47:20;39.95;;;8.95;;
36923;SDS011;22841;50.252;18.688;2022-10-31T14:52:48;22.80;;;8.27;;
36923;SDS011;22841;50.252;18.688;2022-10-31T14:55:17;41.97;;;8.10;;
36923;SDS011;22841;50.252;18.688;2022-10-31T14:57:49;75.70;;;9.50;;
36923;SDS011;22841;50.252;18.688;2022-10-31T15:00:20;91.00;;;14.25;;
36923;SDS011;22841;50.252;18.688;2022-10-31T15:05:48;78.13;;;11.50;;
36923;SDS011;22841;50.252;18.688;2022-10-31T15:08:38;45.97;;;10.68;;
36923;SDS011;22841;50.252;18.688;2022-10-31T15:11:14;51.45;;;13.23;;
36923;SDS011;22841;50.252;18.688;2022-10-31T15:13:44;139.52;;;16.15;;
36923;SDS011;22841;50.252;18.688;2022-10-31T15:16:12;96.93;;;15.30;;
36923;SDS011;22841;50.252;18.688;2022-10-31T15:18:53;218.50;;;22.75;;
36923;SDS011;22841;50.252;18.688;2022-10-31T15:23:55;207.15;;;22.67;;
36923;SDS011;22841;50.252;18.688;2022-10-31T15:26:24;264.15;;;23.55;;
36923;SDS011;22841;50.252;18.688;2022-10-31T15:29:02;102.15;;;17.40;;
36923;SDS011;22841;50.252;18.688;2022-10-31T15:31:30;131.93;;;21.25;;
36923;SDS011;22841;50.252;18.688;2022-10-31T15:34:03;61.55;;;17.33;;
36923;SDS011;22841;50.252;18.688;2022-10-31T15:36:32;58.92;;;17.50;;
36923;SDS011;22841;50.252;18.688;2022-10-31T15:38:58;65.10;;;20.17;;
36923;SDS011;22841;50.252;18.688;2022-10-31T15:41:27;92.55;;;25.98;;
36923;SDS011;22841;50.252;18.688;2022-10-31T15:43:55;55.63;;;18.02;;
36923;SDS011;22841;50.252;18.688;2022-10-31T15:46:27;65.93;;;18.15;;
36923;SDS011;22841;50.252;18.688;2022-10-31T15:48:54;126.78;;;22.52;;
36923;SDS011;22841;50.252;18.688;2022-10-31T15:51:28;144.77;;;24.33;;
36923;SDS011;22841;50.252;18.688;2022-10-31T15:53:57;109.75;;;24.58;;
36923;SDS011;22841;50.252;18.688;2022-10-31T15:56:26;159.80;;;30.65;;
36923;SDS011;22841;50.252;18.688;2022-10-31T15:58:55;377.85;;;46.38;;
36923;SDS011;22841;50.252;18.688;2022-10-31T16:01:32;427.80;;;47.22;;
36923;SDS011;22841;50.252;18.688;2022-10-31T16:06:51;106.32;;;30.40;;
36923;SDS011;22841;50.252;18.688;2022-10-31T16:09:26;142.38;;;30.58;;
36923;SDS011;22841;50.252;18.688;2022-10-31T16:11:52;275.80;;;41.00;;
36923;SDS011;22841;50.252;18.688;2022-10-31T16:14:22;166.05;;;32.90;;
36923;SDS011;22841;50.252;18.688;2022-10-31T16:16:55;194.82;;;31.58;;
36923;SDS011;22841;50.252;18.688;2022-10-31T16:19:25;163.00;;;34.65;;
36923;SDS011;22841;50.252;18.688;2022-10-31T16:21:53;217.02;;;31.17;;
36923;SDS011;22841;50.252;18.688;2022-10-31T16:24:30;92.78;;;24.27;;